Airfield :
LOGIN :

Register | Disclaimer

   EN    FR    IT 

 










Legend :    VFR   Marginal VFR   IFR   Intensive IFR   Very Intensive IFR
Visi :
Ceiling :
>= 8 km
>= 3000ft
5 to 8 km
1000 to 3000 ft
1500m to 5 km
500 to 1000 ft
800 to 1500m
200 to 500 ft
< 800m
< 200 ft
Symbols :   Thunderstorms  Fog  Heavy snow  Heavy precipitations  Wind > 20 kt
SIGMETs :     Misc.  Thunderstorms  Icing  Turbulence  Mountain Waves  Volcanic Ashes






- Airport Elevation : 34 ft
- IATA code : BLK


EGNH - Blackpool

CURRENT METAR :
  • 281220Z 17022KT 7000 -RA BKN007 04/03 Q0995

EXPIRED METARs :
  • 281150Z 16021KT 9000 BKN009 03/03 Q0996
  • 281120Z 16024G34KT 9000 -RA BKN007 03/02 Q0997 RERA
  • 281050Z 15022KT 9000 RA SCT010 03/02 Q0998
  • 280950Z 15019KT 9000 -RA SCT007 03/02 Q1000

TAF TAF EGNH
Valid from the 28 at 12:00 until the 28 at 21:00 UTC


281106Z 2812/2821 15015G25KT 9999 SCT010 BKN020
TEMPO 2812/2821 6000 RA BKN010
PROB30
TEMPO 2812/2821 4000 RADZ BKN006
BECMG 2816/2818 21015KT
ATIS : +44 1253 343 434 (x8315)



MET'MAP, your aeronautical weather chart ! - Copyright ORBIFLY December 2007 - Disclaimer

ORBIFLY MET'MAP TEAM :

Programming & Development : Alexandra Zaïnal
Concept & original design : Baudouin d'Aumeries
Assistance for programming : Marc-Olivier Méhu
Technical & hardware support : Manuel Goepfert

Contact : metmap@orbifly.com




SOURCES & CREDITS :

   NOAA